createdAt,value
2023-03-04T00:02:23.760Z,5.40
2023-03-04T00:07:20.746Z,5.41
2023-03-04T00:12:11.618Z,5.36
2023-03-04T00:17:08.265Z,5.31
2023-03-04T00:22:02.336Z,5.30
2023-03-04T00:26:56.587Z,5.30
2023-03-04T00:31:46.695Z,5.23
2023-03-04T00:36:36.361Z,5.07
2023-03-04T00:41:26.145Z,5.01
2023-03-04T00:46:19.281Z,5.12
2023-03-04T00:51:12.875Z,5.09
2023-03-04T00:56:09.245Z,5.12
2023-03-04T01:01:03.116Z,5.13
2023-03-04T01:05:57.144Z,5.12
2023-03-04T01:10:49.312Z,5.02
2023-03-04T01:15:48.982Z,5.08
2023-03-04T01:20:41.788Z,5.11
2023-03-04T01:25:37.185Z,5.03
2023-03-04T01:30:29.313Z,5.08
2023-03-04T01:35:20.435Z,5.11
2023-03-04T01:40:12.830Z,5.20
2023-03-04T01:45:07.962Z,5.22
2023-03-04T01:50:00.437Z,5.17
2023-03-04T01:54:53.162Z,5.15
2023-03-04T01:59:46.013Z,5.20
2023-03-04T02:04:46.858Z,5.23
2023-03-04T02:09:37.287Z,5.19
2023-03-04T02:14:28.404Z,5.26
2023-03-04T02:19:28.082Z,5.21
2023-03-04T02:24:26.481Z,5.22
2023-03-04T02:29:21.515Z,5.16
2023-03-04T02:34:19.191Z,5.18
2023-03-04T02:39:16.514Z,5.16
2023-03-04T02:44:18.536Z,5.16
2023-03-04T02:49:19.560Z,5.15
2023-03-04T02:54:17.941Z,5.18
2023-03-04T02:59:08.388Z,5.22
2023-03-04T03:03:58.073Z,5.17
2023-03-04T03:08:53.852Z,5.19
2023-03-04T03:13:47.028Z,5.01
2023-03-04T03:18:38.790Z,5.03
2023-03-04T03:23:37.509Z,5.06
2023-03-04T03:28:37.191Z,5.10
2023-03-04T03:33:31.634Z,5.12
2023-03-04T03:38:28.223Z,5.07
2023-03-04T03:43:18.634Z,5.07
2023-03-04T03:48:12.954Z,5.07
2023-03-04T03:53:03.052Z,5.12
2023-03-04T03:57:55.664Z,5.12
2023-03-04T04:02:50.059Z,5.11
2023-03-04T04:07:45.520Z,5.12
2023-03-04T04:12:36.454Z,5.14
2023-03-04T04:17:28.548Z,5.13
2023-03-04T04:22:21.594Z,5.07
2023-03-04T04:27:19.098Z,5.11
2023-03-04T04:32:13.661Z,5.07
2023-03-04T04:37:06.753Z,5.10
2023-03-04T04:41:57.488Z,5.07
2023-03-04T04:46:49.987Z,5.09
2023-03-04T04:51:40.526Z,5.12
2023-03-04T04:56:30.531Z,5.10
2023-03-04T05:01:20.873Z,5.03
2023-03-04T05:06:17.706Z,5.08
2023-03-04T05:11:22.669Z,5.05
2023-03-04T05:16:15.190Z,5.02
2023-03-04T05:21:09.918Z,4.94
2023-03-04T05:26:11.029Z,5.01
2023-03-04T05:31:06.825Z,5.01
2023-03-04T05:35:56.565Z,4.97
2023-03-04T05:40:46.478Z,4.97
2023-03-04T05:45:39.569Z,5.00
2023-03-04T05:50:34.154Z,5.02
2023-03-04T05:55:27.981Z,4.92
2023-03-04T06:00:21.249Z,5.02
2023-03-04T06:05:19.322Z,5.04
2023-03-04T06:10:21.496Z,4.99
2023-03-04T06:15:24.943Z,5.04
2023-03-04T06:20:18.015Z,5.04
2023-03-04T06:25:09.761Z,5.01
2023-03-04T06:30:02.564Z,5.00
2023-03-04T06:34:55.963Z,4.98
2023-03-04T06:39:53.969Z,5.00
2023-03-04T06:44:53.047Z,4.90
2023-03-04T06:49:58.811Z,4.91
2023-03-04T06:54:51.445Z,4.97
2023-03-04T06:59:41.224Z,4.97
2023-03-04T07:04:30.980Z,4.97
2023-03-04T07:09:20.525Z,4.86
2023-03-04T07:14:15.930Z,4.69
2023-03-04T07:19:07.847Z,4.81
2023-03-04T07:23:57.986Z,4.81
2023-03-04T07:28:48.713Z,4.79
2023-03-04T07:33:42.417Z,4.82
2023-03-04T07:38:35.121Z,4.85
2023-03-04T07:43:39.217Z,4.86
2023-03-04T07:48:41.851Z,4.93
2023-03-04T07:53:34.259Z,5.14
2023-03-04T07:58:24.024Z,5.23
2023-03-04T08:03:15.887Z,5.30
2023-03-04T08:08:05.832Z,5.40
2023-03-04T08:13:03.984Z,5.42
2023-03-04T08:17:54.876Z,5.46
2023-03-04T08:22:46.765Z,5.53
2023-03-04T08:27:38.351Z,5.59
2023-03-04T08:32:32.808Z,5.63
2023-03-04T08:37:37.064Z,5.73
2023-03-04T08:42:31.836Z,5.84
2023-03-04T08:47:22.062Z,5.95
2023-03-04T08:52:15.682Z,6.05
2023-03-04T08:57:07.592Z,6.17
2023-03-04T09:01:59.411Z,6.16
2023-03-04T09:06:54.215Z,6.25
2023-03-04T09:11:49.749Z,6.42
2023-03-04T09:16:45.241Z,6.26
2023-03-04T09:21:36.410Z,6.74
2023-03-04T09:26:30.595Z,6.77
2023-03-04T09:31:28.021Z,7.10
2023-03-04T09:36:19.486Z,7.43
2023-03-04T09:41:14.540Z,7.43
2023-03-04T09:46:08.183Z,7.30
2023-03-04T09:51:10.830Z,7.18
2023-03-04T09:56:11.277Z,7.27
2023-03-04T10:01:05.946Z,7.23
2023-03-04T10:06:03.980Z,7.16
2023-03-04T10:11:00.788Z,7.19
2023-03-04T10:15:54.585Z,7.26
2023-03-04T10:20:54.829Z,7.25
2023-03-04T10:25:54.378Z,7.09
2023-03-04T10:30:56.436Z,6.90
2023-03-04T10:35:55.171Z,6.78
2023-03-04T10:40:50.694Z,7.50
2023-03-04T10:45:45.943Z,7.75
2023-03-04T10:50:39.932Z,7.64
2023-03-04T10:55:33.587Z,7.57
2023-03-04T11:00:34.975Z,7.62
2023-03-04T11:05:31.316Z,7.56
2023-03-04T11:10:43.282Z,7.50
2023-03-04T11:15:36.557Z,7.72
2023-03-04T11:20:38.960Z,8.08
2023-03-04T11:25:47.898Z,8.25
2023-03-04T11:30:52.429Z,8.65
2023-03-04T11:35:56.681Z,8.57
2023-03-04T11:40:51.945Z,8.34
2023-03-04T11:45:51.762Z,8.29
2023-03-04T11:50:53.570Z,8.25
2023-03-04T11:55:52.155Z,8.07
2023-03-04T12:01:01.516Z,7.91
2023-03-04T12:06:01.629Z,7.69
2023-03-04T12:10:56.614Z,7.49
2023-03-04T12:15:53.834Z,7.58
2023-03-04T12:20:57.623Z,7.76
2023-03-04T12:26:00.115Z,8.12
2023-03-04T12:30:59.365Z,8.29
2023-03-04T12:35:52.139Z,7.81
2023-03-04T12:40:48.966Z,7.83
2023-03-04T12:45:43.937Z,7.75
2023-03-04T12:50:47.782Z,7.64
2023-03-04T12:55:43.415Z,7.79
2023-03-04T13:00:44.685Z,7.98
2023-03-04T13:05:45.744Z,8.30
2023-03-04T13:10:35.839Z,8.57
2023-03-04T13:15:40.555Z,8.64
2023-03-04T13:20:53.672Z,8.61
2023-03-04T13:25:53.608Z,8.32
2023-03-04T13:31:00.538Z,8.12
2023-03-04T13:35:53.571Z,8.18
2023-03-04T13:40:50.438Z,8.18
2023-03-04T13:45:47.391Z,8.08
2023-03-04T13:50:46.299Z,8.12
2023-03-04T13:55:39.835Z,8.13
2023-03-04T14:00:48.045Z,8.03
2023-03-04T14:05:43.159Z,7.79
2023-03-04T14:10:38.170Z,7.88
2023-03-04T14:15:32.791Z,7.90
2023-03-04T14:20:30.951Z,7.98
2023-03-04T14:25:36.217Z,8.22
2023-03-04T14:30:42.751Z,8.23
2023-03-04T14:35:41.771Z,8.16
2023-03-04T14:40:41.897Z,8.35
2023-03-04T14:45:34.896Z,8.48
2023-03-04T14:50:36.170Z,8.65
2023-03-04T14:55:30.595Z,8.59
2023-03-04T15:00:36.956Z,8.38
2023-03-04T15:05:30.680Z,8.26
2023-03-04T15:10:24.462Z,8.07
2023-03-04T15:15:29.936Z,7.95
2023-03-04T15:20:36.729Z,7.94
2023-03-04T15:25:30.647Z,7.88
2023-03-04T15:30:21.579Z,7.82
2023-03-04T15:35:12.425Z,7.62
2023-03-04T15:40:05.652Z,7.59
2023-03-04T15:44:58.913Z,7.39
2023-03-04T15:49:52.774Z,7.41
2023-03-04T15:54:47.098Z,7.42
2023-03-04T15:59:40.842Z,7.38
2023-03-04T16:04:39.236Z,7.32
2023-03-04T16:09:47.462Z,7.25
2023-03-04T16:14:38.300Z,7.13
2023-03-04T16:19:33.930Z,7.13
2023-03-04T16:24:25.157Z,6.94
2023-03-04T16:29:19.788Z,6.86
2023-03-04T16:34:13.860Z,6.94
2023-03-04T16:39:11.531Z,6.78
2023-03-04T16:44:06.518Z,6.83
2023-03-04T16:49:00.338Z,6.69
2023-03-04T16:53:55.485Z,6.83
2023-03-04T16:58:51.730Z,6.79
2023-03-04T17:03:42.592Z,6.75
2023-03-04T17:08:32.124Z,6.69
2023-03-04T17:13:21.692Z,6.74
2023-03-04T17:18:14.503Z,6.76
2023-03-04T17:23:05.469Z,6.72
2023-03-04T17:27:56.230Z,6.64
2023-03-04T17:32:47.803Z,6.58
2023-03-04T17:37:44.074Z,6.58
2023-03-04T17:42:38.091Z,6.56
2023-03-04T17:47:36.212Z,6.37
2023-03-04T17:52:30.624Z,6.52
2023-03-04T17:57:26.607Z,6.42
2023-03-04T18:02:19.861Z,6.42
2023-03-04T18:07:10.604Z,6.39
2023-03-04T18:12:00.637Z,6.36
2023-03-04T18:16:54.770Z,6.11
2023-03-04T18:21:56.609Z,6.27
2023-03-04T18:26:46.605Z,6.21
2023-03-04T18:31:38.542Z,6.02
2023-03-04T18:36:35.531Z,5.99
2023-03-04T18:41:27.734Z,5.90
2023-03-04T18:46:30.711Z,5.92
2023-03-04T18:51:20.279Z,5.95
2023-03-04T18:56:15.085Z,5.99
2023-03-04T19:01:06.577Z,5.96
2023-03-04T19:06:02.779Z,5.94
2023-03-04T19:10:56.673Z,5.87
2023-03-04T19:15:50.218Z,5.82
2023-03-04T19:20:44.587Z,5.86
2023-03-04T19:25:40.928Z,5.85
2023-03-04T19:30:39.756Z,5.83
2023-03-04T19:35:36.302Z,5.50
2023-03-04T19:40:29.646Z,5.56
2023-03-04T19:45:20.120Z,5.57
2023-03-04T19:50:18.932Z,5.47
2023-03-04T19:55:13.753Z,5.45
2023-03-04T20:00:12.830Z,5.51
2023-03-04T20:05:11.158Z,5.42
2023-03-04T20:10:03.915Z,5.37
2023-03-04T20:14:59.032Z,5.34
2023-03-04T20:19:49.132Z,5.30
2023-03-04T20:24:39.296Z,5.16
2023-03-04T20:29:35.542Z,5.08
2023-03-04T20:34:28.131Z,5.05
2023-03-04T20:39:28.748Z,5.09
2023-03-04T20:44:26.561Z,5.10
2023-03-04T20:49:20.317Z,4.96
2023-03-04T20:54:12.613Z,4.87
2023-03-04T20:59:04.510Z,4.87
2023-03-04T21:03:56.414Z,4.88
2023-03-04T21:08:51.995Z,4.82
2023-03-04T21:13:54.131Z,4.85
2023-03-04T21:18:48.072Z,4.81
2023-03-04T21:23:42.492Z,4.82
2023-03-04T21:28:33.452Z,4.80
2023-03-04T21:33:37.767Z,4.75
2023-03-04T21:38:28.327Z,4.69
2023-03-04T21:43:27.510Z,4.55
2023-03-04T21:48:18.521Z,4.49
2023-03-04T21:53:23.104Z,4.57
2023-03-04T21:58:15.726Z,4.60
2023-03-04T22:03:05.852Z,4.44
2023-03-04T22:08:03.586Z,4.50
2023-03-04T22:13:01.726Z,4.51
2023-03-04T22:17:52.332Z,4.53
2023-03-04T22:22:55.402Z,4.53
2023-03-04T22:27:46.237Z,4.57
2023-03-04T22:32:38.545Z,4.53
2023-03-04T22:37:28.524Z,4.47
2023-03-04T22:42:20.347Z,4.47
2023-03-04T22:47:10.126Z,4.46
2023-03-04T22:52:02.488Z,4.47
2023-03-04T22:56:54.337Z,4.50
2023-03-04T23:01:47.099Z,4.50
2023-03-04T23:06:40.071Z,4.56
2023-03-04T23:11:43.264Z,4.60
2023-03-04T23:16:37.452Z,4.59
2023-03-04T23:21:31.269Z,4.56
2023-03-04T23:26:32.413Z,4.58
2023-03-04T23:31:29.165Z,4.59
2023-03-04T23:36:23.245Z,4.56
2023-03-04T23:41:14.015Z,4.51
2023-03-04T23:46:03.825Z,4.48
2023-03-04T23:51:06.825Z,4.46
2023-03-04T23:56:01.733Z,4.38
